Time;durP1;ratioP1;P1;durP2;ratioP2;P2;SDS_P1;SDS_P2;PMS_P1;PMS_P2;Temp;Humidity;BMP_temperature;BMP_pressure;BME280_temperature;BME280_humidity;BME280_pressure;Samples;Min_cycle;Max_cycle;Signal;HPM_P1;HPM_P2
2022/12/19 00:01:36;;;;;;;16.50;9.40;;;-4.10;99.90;;;;;;5043033;28;21028;-69
2022/12/19 00:04:05;;;;;;;17.30;8.23;;;-4.00;99.90;;;;;;5037322;28;20416;-70
2022/12/19 00:06:31;;;;;;;11.80;7.32;;;-4.00;99.90;;;;;;5034469;28;20571;-69
2022/12/19 00:11:53;;;;;;;31.20;9.40;;;-4.00;99.90;;;;;;5042416;28;20502;-70
2022/12/19 00:14:19;;;;;;;19.33;10.00;;;-4.00;99.90;;;;;;5053601;28;20749;-71
2022/12/19 00:16:50;;;;;;;18.97;9.63;;;-4.00;99.90;;;;;;5053572;28;20576;-69
2022/12/19 00:19:18;;;;;;;12.53;7.40;;;-4.00;99.90;;;;;;5053599;28;20645;-70
2022/12/19 00:21:44;;;;;;;16.10;8.37;;;-4.00;99.90;;;;;;5052795;28;20816;-68
2022/12/19 00:26:38;;;;;;;12.63;7.20;;;-3.90;99.90;;;;;;5077680;22;20230;-66
2022/12/19 00:29:06;;;;;;;11.90;8.47;;;-3.90;99.90;;;;;;5040112;28;20410;-66
2022/12/19 00:31:34;;;;;;;11.10;8.90;;;-3.90;99.90;;;;;;5034753;28;20493;-66
2022/12/19 00:34:00;;;;;;;12.25;8.40;;;-3.90;99.90;;;;;;5034762;28;20768;-66
2022/12/19 00:36:29;;;;;;;17.00;7.63;;;-3.80;99.90;;;;;;5031468;28;20188;-67
2022/12/19 00:38:56;;;;;;;12.33;8.27;;;-3.80;99.90;;;;;;5026414;28;20406;-66
2022/12/19 00:41:36;;;;;;;11.10;7.07;;;-3.80;99.90;;;;;;5033137;28;20406;-67
2022/12/19 00:44:04;;;;;;;12.20;7.50;;;-3.80;99.90;;;;;;5033179;28;20782;-67
2022/12/19 00:46:31;;;;;;;16.27;9.60;;;-3.80;99.90;;;;;;5031481;28;20833;-67
2022/12/19 00:48:57;;;;;;;11.83;8.00;;;-3.80;99.90;;;;;;5033515;28;20962;-66
2022/12/19 00:51:25;;;;;;;13.37;7.43;;;-3.80;99.90;;;;;;5033440;28;20398;-67
2022/12/19 00:53:53;;;;;;;15.47;8.43;;;-3.70;99.90;;;;;;5030278;28;20409;-66
2022/12/19 00:56:22;;;;;;;10.93;7.87;;;-3.80;99.90;;;;;;5028617;28;20426;-67
2022/12/19 00:58:47;;;;;;;11.87;9.10;;;-3.70;99.90;;;;;;5031794;28;20402;-66
2022/12/19 01:01:19;;;;;;;13.93;10.80;;;-3.70;99.90;;;;;;5022035;28;20920;-66
2022/12/19 01:03:45;;;;;;;17.83;7.50;;;-3.70;99.90;;;;;;5026241;28;20509;-67
2022/12/19 01:06:11;;;;;;;15.37;7.40;;;-3.70;99.90;;;;;;5032326;28;20817;-67
2022/12/19 01:08:37;;;;;;;14.33;8.03;;;-3.70;99.90;;;;;;5031472;28;20418;-67
2022/12/19 01:11:04;;;;;;;11.50;7.17;;;-3.60;99.90;;;;;;5030187;28;20163;-66
2022/12/19 01:13:31;;;;;;;13.17;8.50;;;-3.60;99.90;;;;;;5007344;28;20480;-66
2022/12/19 01:16:05;;;;;;;14.83;8.70;;;-3.60;99.90;;;;;;5031879;28;20430;-67
2022/12/19 01:18:31;;;;;;;13.57;8.37;;;-3.60;99.90;;;;;;5028173;28;20502;-66
2022/12/19 01:21:00;;;;;;;14.23;8.43;;;-3.60;99.90;;;;;;5025870;28;20406;-67
2022/12/19 01:23:26;;;;;;;15.13;8.70;;;-3.60;99.90;;;;;;5032021;28;20414;-66
2022/12/19 01:25:52;;;;;;;10.97;7.30;;;-3.70;99.90;;;;;;5026308;28;20465;-66
2022/12/19 01:28:18;;;;;;;12.53;8.80;;;-3.60;99.90;;;;;;5031756;28;20406;-66
2022/12/19 01:30:44;;;;;;;12.23;7.27;;;-3.60;99.90;;;;;;5019477;28;20406;-66
2022/12/19 01:33:11;;;;;;;14.17;9.80;;;-3.60;99.90;;;;;;5025109;28;20931;-66
2022/12/19 01:35:38;;;;;;;19.83;8.63;;;-3.60;99.90;;;;;;5027289;28;20192;-67
2022/12/19 01:38:04;;;;;;;10.10;8.13;;;-3.60;99.90;;;;;;5031977;28;20456;-67
2022/12/19 01:40:30;;;;;;;11.70;8.83;;;-3.70;99.90;;;;;;5029296;28;20462;-67
2022/12/19 01:42:56;;;;;;;14.83;9.40;;;-3.60;99.90;;;;;;5032002;28;20175;-67
2022/12/19 01:45:26;;;;;;;14.67;6.73;;;-3.60;99.90;;;;;;5024410;28;20968;-67
2022/12/19 01:48:05;;;;;;;10.80;7.20;;;-3.60;99.90;;;;;;5027287;28;20460;-66
2022/12/19 01:50:36;;;;;;;10.47;7.90;;;-3.60;99.90;;;;;;5030777;28;20444;-66
2022/12/19 01:53:04;;;;;;;14.50;8.27;;;-3.60;99.90;;;;;;5028204;28;20406;-67
2022/12/19 01:55:30;;;;;;;14.60;7.10;;;-3.60;99.90;;;;;;5024208;28;20458;-67
2022/12/19 01:57:58;;;;;;;12.30;8.00;;;-3.60;99.90;;;;;;5022149;28;20444;-67
2022/12/19 02:00:24;;;;;;;15.33;8.47;;;-3.50;99.90;;;;;;5030779;28;20464;-67
2022/12/19 02:03:07;;;;;;;9.97;7.67;;;-3.50;99.90;;;;;;5029554;28;20411;-67
2022/12/19 02:05:33;;;;;;;13.97;7.77;;;-3.50;99.90;;;;;;5027016;28;20231;-67
2022/12/19 02:07:59;;;;;;;14.53;7.33;;;-3.50;99.90;;;;;;5030749;28;20450;-67
2022/12/19 02:10:25;;;;;;;14.40;10.50;;;-3.50;99.90;;;;;;5013034;28;20920;-67
2022/12/19 02:12:51;;;;;;;11.10;6.50;;;-3.50;99.90;;;;;;5025292;28;20403;-68
2022/12/19 02:15:17;;;;;;;15.33;7.53;;;-3.50;99.90;;;;;;5030575;28;20437;-67
2022/12/19 02:18:04;;;;;;;17.40;7.90;;;-3.50;99.90;;;;;;5025044;28;20176;-66
2022/12/19 02:20:48;;;;;;;19.77;10.93;;;-3.50;99.90;;;;;;5028641;28;20402;-66
2022/12/19 02:23:41;;;;;;;9.43;7.40;;;-3.40;99.90;;;;;;5027828;28;20402;-66
2022/12/19 02:26:51;;;;;;;18.60;7.73;;;-3.40;99.90;;;;;;5024868;28;20485;-66
2022/12/19 02:29:38;;;;;;;15.07;7.80;;;-3.50;99.90;;;;;;5011820;28;20723;-67
2022/12/19 02:32:18;;;;;;;10.67;7.57;;;-3.50;99.90;;;;;;5023706;28;20899;-67
2022/12/19 02:34:59;;;;;;;12.63;8.40;;;-3.50;99.90;;;;;;5029163;28;20426;-66
2022/12/19 02:37:33;;;;;;;13.17;9.23;;;-3.50;99.90;;;;;;5027834;28;20407;-67
2022/12/19 02:40:20;;;;;;;15.60;9.70;;;-3.50;99.90;;;;;;5025264;28;20421;-67
2022/12/19 02:42:50;;;;;;;14.00;7.47;;;-3.50;99.90;;;;;;5022707;28;20447;-66
2022/12/19 02:45:19;;;;;;;13.63;7.90;;;-3.50;99.90;;;;;;5012052;28;20611;-66
2022/12/19 02:47:45;;;;;;;17.67;9.00;;;-3.50;99.90;;;;;;5014444;28;20430;-66
2022/12/19 02:50:11;;;;;;;12.93;8.87;;;-3.50;99.90;;;;;;5030144;28;20402;-66
2022/12/19 02:52:37;;;;;;;14.10;9.50;;;-3.50;99.90;;;;;;5030370;28;20413;-67
2022/12/19 02:55:07;;;;;;;14.83;7.27;;;-3.50;99.90;;;;;;5029438;28;20948;-67
2022/12/19 02:57:56;;;;;;;16.23;8.37;;;-3.50;99.90;;;;;;5023420;28;20172;-66
2022/12/19 03:00:25;;;;;;;15.67;8.63;;;-3.50;99.90;;;;;;5025827;28;20544;-66
2022/12/19 03:03:20;;;;;;;17.90;8.00;;;-3.50;99.90;;;;;;5030038;28;20513;-66
2022/12/19 03:06:04;;;;;;;16.43;10.33;;;-3.50;99.90;;;;;;5032482;28;20564;-67
2022/12/19 03:08:37;;;;;;;20.70;10.50;;;-3.50;99.90;;;;;;5030576;28;20924;-67
2022/12/19 03:11:06;;;;;;;14.30;7.10;;;-3.50;99.90;;;;;;5034407;28;20757;-66
2022/12/19 03:13:48;;;;;;;15.30;7.83;;;-3.50;99.90;;;;;;5031442;28;20402;-66
2022/12/19 03:16:14;;;;;;;13.77;8.70;;;-3.50;99.90;;;;;;5015777;28;20789;-66
2022/12/19 03:18:41;;;;;;;12.97;9.00;;;-3.50;99.90;;;;;;5031962;28;20501;-66
2022/12/19 03:21:20;;;;;;;15.77;10.23;;;-3.50;99.90;;;;;;5032569;28;20559;-66
2022/12/19 03:23:47;;;;;;;13.77;10.00;;;-3.50;99.90;;;;;;5026043;28;20413;-67
2022/12/19 03:26:22;;;;;;;17.77;10.17;;;-3.50;99.90;;;;;;5033225;28;20469;-65
2022/12/19 03:28:56;;;;;;;17.87;8.07;;;-3.50;99.90;;;;;;5022029;28;20953;-66
2022/12/19 03:31:26;;;;;;;11.10;7.00;;;-3.50;99.90;;;;;;5026567;28;20406;-66
2022/12/19 03:33:57;;;;;;;21.00;10.00;;;-3.40;99.90;;;;;;5030109;28;20889;-67
2022/12/19 03:36:44;;;;;;;14.60;9.23;;;-3.50;99.90;;;;;;5033288;28;20434;-65
2022/12/19 03:39:12;;;;;;;16.73;9.00;;;-3.50;99.90;;;;;;5030598;28;20402;-66
2022/12/19 03:44:25;;;;;;;19.30;10.73;;;-3.50;99.90;;;;;;5030643;28;20500;-66
2022/12/19 03:47:01;;;;;;;22.20;10.00;;;-3.50;99.90;;;;;;5028984;28;20487;-66
2022/12/19 03:49:27;;;;;;;16.80;9.40;;;-3.50;99.90;;;;;;5032684;28;20406;-67
2022/12/19 03:52:34;;;;;;;21.73;9.93;;;-3.50;99.90;;;;;;5027551;28;20463;-67
2022/12/19 03:55:30;;;;;;;12.43;7.77;;;-3.40;99.90;;;;;;5018236;28;20218;-66
2022/12/19 03:58:03;;;;;;;14.37;10.90;;;-3.40;99.90;;;;;;5027487;28;20453;-67
2022/12/19 04:00:33;;;;;;;16.80;9.30;;;-3.40;99.90;;;;;;5032958;28;20497;-66
2022/12/19 04:03:00;;;;;;;13.43;9.17;;;-3.40;99.90;;;;;;5033174;28;20410;-66
2022/12/19 04:05:27;;;;;;;24.63;10.43;;;-3.40;99.90;;;;;;5025260;28;20599;-66
2022/12/19 04:07:57;;;;;;;20.63;11.40;;;-3.30;99.90;;;;;;5033012;28;20410;-66
2022/12/19 04:10:25;;;;;;;17.30;9.80;;;-3.30;99.90;;;;;;5032864;28;20414;-67
2022/12/19 04:13:00;;;;;;;13.30;7.57;;;-3.30;99.90;;;;;;5033001;28;20437;-67
2022/12/19 04:15:58;;;;;;;21.20;10.27;;;-3.30;99.90;;;;;;5032881;28;20807;-67
2022/12/19 04:18:24;;;;;;;11.27;8.20;;;-3.30;99.90;;;;;;5012275;28;20415;-67
2022/12/19 04:20:58;;;;;;;13.70;10.67;;;-3.30;99.90;;;;;;5032974;28;20951;-66
2022/12/19 04:23:31;;;;;;;19.07;10.73;;;-3.20;99.90;;;;;;5033051;28;20414;-66
2022/12/19 04:26:01;;;;;;;17.93;10.23;;;-3.20;99.90;;;;;;5032500;28;20472;-67
2022/12/19 04:28:33;;;;;;;21.73;10.20;;;-3.20;99.90;;;;;;5026107;28;20782;-66
2022/12/19 04:30:59;;;;;;;14.97;9.93;;;-3.20;99.90;;;;;;5033280;28;20493;-66
2022/12/19 04:33:25;;;;;;;13.80;9.03;;;-3.20;99.90;;;;;;5031267;28;20502;-66
2022/12/19 04:35:51;;;;;;;17.80;9.10;;;-3.20;99.90;;;;;;5032620;28;20438;-66
2022/12/19 04:38:16;;;;;;;14.93;10.97;;;-3.20;99.90;;;;;;5030196;28;20176;-66
2022/12/19 04:40:42;;;;;;;17.30;10.90;;;-3.20;99.90;;;;;;5026936;28;20171;-67
2022/12/19 04:43:08;;;;;;;22.00;9.57;;;-3.20;99.90;;;;;;5024695;28;20716;-66
2022/12/19 04:45:33;;;;;;;17.53;10.47;;;-3.20;99.90;;;;;;5032176;28;20719;-66
2022/12/19 04:47:59;;;;;;;7.47;6.70;;;-3.20;99.90;;;;;;5025536;28;20403;-66
2022/12/19 04:50:24;;;;;;;19.07;10.30;;;-3.10;99.90;;;;;;5028888;28;20192;-66
2022/12/19 04:52:50;;;;;;;15.73;8.97;;;-3.10;99.90;;;;;;5027097;28;20172;-67
2022/12/19 04:55:16;;;;;;;16.77;10.27;;;-3.10;99.90;;;;;;5030648;28;20325;-66
2022/12/19 04:57:41;;;;;;;18.87;8.50;;;-3.10;99.90;;;;;;5027332;28;20194;-67
2022/12/19 05:00:07;;;;;;;12.73;9.47;;;-3.10;99.90;;;;;;5024571;28;20168;-66
2022/12/19 05:02:34;;;;;;;12.20;9.30;;;-3.10;99.90;;;;;;5031252;28;20179;-65
2022/12/19 05:05:00;;;;;;;17.73;8.23;;;-3.10;99.90;;;;;;5032771;28;20470;-66
2022/12/19 05:07:25;;;;;;;18.37;11.13;;;-3.10;99.90;;;;;;5028873;28;20985;-68
2022/12/19 05:09:51;;;;;;;20.57;9.90;;;-3.10;99.90;;;;;;5032640;28;20191;-66
2022/12/19 05:12:16;;;;;;;16.87;8.37;;;-3.10;99.90;;;;;;5032366;28;20179;-66
2022/12/19 05:14:42;;;;;;;13.97;9.00;;;-3.10;99.90;;;;;;5032264;28;20195;-66
2022/12/19 05:17:08;;;;;;;23.13;10.17;;;-3.20;99.90;;;;;;5024370;28;20281;-66
2022/12/19 05:19:33;;;;;;;13.70;9.40;;;-3.20;99.90;;;;;;5032080;28;20234;-66
2022/12/19 05:21:59;;;;;;;18.17;11.87;;;-3.20;99.90;;;;;;5029689;28;20176;-66
2022/12/19 05:24:25;;;;;;;18.23;9.87;;;-3.20;99.90;;;;;;5032636;28;20437;-67
2022/12/19 05:26:50;;;;;;;17.80;9.47;;;-3.20;99.90;;;;;;5025280;28;20210;-66
2022/12/19 05:29:16;;;;;;;29.00;13.70;;;-3.20;99.90;;;;;;5032517;28;20164;-66
2022/12/19 05:31:42;;;;;;;17.67;11.73;;;-3.20;99.90;;;;;;5031092;28;20160;-65
2022/12/19 05:34:08;;;;;;;24.87;11.27;;;-3.30;99.90;;;;;;5029365;28;20493;-65
2022/12/19 05:36:33;;;;;;;15.37;9.70;;;-3.20;99.90;;;;;;5025793;28;20210;-65
2022/12/19 05:38:59;;;;;;;14.30;8.07;;;-3.20;99.90;;;;;;5031192;28;20167;-66
2022/12/19 05:41:25;;;;;;;24.90;11.23;;;-3.10;99.90;;;;;;5031224;28;20182;-65
2022/12/19 05:43:53;;;;;;;16.47;10.30;;;-3.10;99.90;;;;;;5031186;28;20590;-65
2022/12/19 05:46:20;;;;;;;20.50;10.87;;;-3.00;99.90;;;;;;5026448;28;20369;-66
2022/12/19 05:48:46;;;;;;;17.73;10.87;;;-3.00;99.90;;;;;;5022951;28;20403;-65
2022/12/19 05:51:12;;;;;;;18.87;9.30;;;-3.00;99.90;;;;;;5031322;28;20469;-66
2022/12/19 05:53:38;;;;;;;20.83;10.43;;;-2.90;99.90;;;;;;5024939;28;20829;-66
2022/12/19 05:56:08;;;;;;;18.77;10.30;;;-2.90;99.90;;;;;;5022177;28;20254;-66
2022/12/19 05:58:34;;;;;;;17.80;9.10;;;-2.80;99.90;;;;;;5022746;28;20418;-65
2022/12/19 06:01:02;;;;;;;18.27;10.83;;;-2.80;99.90;;;;;;5024753;28;20835;-66
2022/12/19 06:03:27;;;;;;;18.63;10.17;;;-2.80;99.90;;;;;;5013373;28;20468;-66
2022/12/19 06:05:53;;;;;;;17.33;10.23;;;-2.70;99.90;;;;;;5029878;28;20783;-67
2022/12/19 06:08:19;;;;;;;20.23;10.87;;;-2.80;99.90;;;;;;5031029;28;20190;-66
2022/12/19 06:10:44;;;;;;;21.27;8.60;;;-2.70;99.90;;;;;;5024829;28;20469;-66
2022/12/19 06:13:10;;;;;;;13.93;7.90;;;-2.70;99.90;;;;;;5028367;28;20273;-66
2022/12/19 06:15:35;;;;;;;16.73;8.90;;;-2.70;99.90;;;;;;5028887;28;20304;-66
2022/12/19 06:18:01;;;;;;;17.23;9.17;;;-2.60;99.90;;;;;;5025069;28;20183;-66
2022/12/19 06:20:26;;;;;;;18.37;9.50;;;-2.60;99.90;;;;;;5030036;28;20179;-66
2022/12/19 06:22:52;;;;;;;19.97;11.27;;;-2.60;99.90;;;;;;5028029;28;20495;-67
2022/12/19 06:25:18;;;;;;;15.67;8.43;;;-2.70;99.90;;;;;;5030238;28;20294;-66
2022/12/19 06:27:44;;;;;;;13.87;8.97;;;-2.70;99.90;;;;;;5030524;28;20622;-67
2022/12/19 06:30:10;;;;;;;13.00;6.83;;;-2.60;99.90;;;;;;5058929;22;20707;-68
2022/12/19 06:32:35;;;;;;;17.33;10.73;;;-2.50;99.90;;;;;;5051025;28;20444;-69
2022/12/19 06:35:01;;;;;;;18.63;10.43;;;-2.50;99.90;;;;;;5051241;28;20437;-69
2022/12/19 06:37:26;;;;;;;21.30;10.30;;;-2.50;99.90;;;;;;5044766;28;20179;-69
2022/12/19 06:39:52;;;;;;;16.23;9.60;;;-2.50;99.90;;;;;;5049468;28;20223;-69
2022/12/19 06:42:24;;;;;;;16.93;11.40;;;-2.50;99.90;;;;;;5047692;28;20163;-69
2022/12/19 06:44:51;;;;;;;15.30;8.30;;;-2.40;99.90;;;;;;5044549;28;20210;-69
2022/12/19 06:47:17;;;;;;;13.77;8.70;;;-2.40;99.90;;;;;;5051335;28;20979;-69
2022/12/19 06:49:43;;;;;;;15.03;8.50;;;-2.40;99.90;;;;;;5050609;28;20794;-69
2022/12/19 06:52:08;;;;;;;15.97;8.30;;;-2.40;99.90;;;;;;5051090;28;20409;-69
2022/12/19 06:54:34;;;;;;;18.50;9.10;;;-2.30;99.90;;;;;;5050905;28;20629;-68
2022/12/19 06:57:00;;;;;;;20.73;8.17;;;-2.30;99.90;;;;;;5051055;28;20240;-69
2022/12/19 06:59:25;;;;;;;18.37;8.40;;;-2.30;99.90;;;;;;5050932;28;20182;-68
2022/12/19 07:01:58;;;;;;;23.73;9.97;;;-2.30;99.90;;;;;;5050972;28;20397;-68
2022/12/19 07:04:29;;;;;;;15.10;8.23;;;-2.20;99.90;;;;;;5050268;28;20189;-68
2022/12/19 07:06:56;;;;;;;11.73;7.37;;;-2.20;99.90;;;;;;5045402;28;20402;-68
2022/12/19 07:09:22;;;;;;;13.93;11.00;;;-2.20;99.90;;;;;;5051167;28;20393;-68
2022/12/19 07:11:47;;;;;;;11.33;7.60;;;-2.10;99.90;;;;;;5045724;28;20927;-68
2022/12/19 07:14:13;;;;;;;17.03;9.03;;;-2.10;99.90;;;;;;5050791;28;20679;-68
2022/12/19 07:16:39;;;;;;;17.20;9.83;;;-2.10;99.90;;;;;;5050664;28;20228;-68
2022/12/19 07:19:07;;;;;;;15.90;9.13;;;-2.10;99.90;;;;;;5050640;28;20254;-68
2022/12/19 07:21:32;;;;;;;26.80;10.53;;;-2.00;99.90;;;;;;5049854;28;20429;-69
2022/12/19 07:23:59;;;;;;;16.27;9.23;;;-1.90;99.90;;;;;;5050947;28;20402;-69
2022/12/19 07:26:24;;;;;;;17.47;8.40;;;-1.80;99.90;;;;;;5050264;28;20191;-67
2022/12/19 07:28:50;;;;;;;18.17;9.13;;;-1.70;99.90;;;;;;5028087;28;20800;-68
2022/12/19 07:31:15;;;;;;;19.10;8.77;;;-1.70;99.90;;;;;;5050421;28;20289;-69
2022/12/19 07:33:41;;;;;;;14.87;9.27;;;-1.60;99.90;;;;;;5050841;28;20195;-68
2022/12/19 07:36:07;;;;;;;21.33;10.27;;;-1.50;99.90;;;;;;5050806;28;20250;-66
2022/12/19 07:38:35;;;;;;;15.70;9.10;;;-1.00;99.90;;;;;;5050685;28;20186;-67
2022/12/19 07:41:01;;;;;;;24.80;9.93;;;-1.30;99.90;;;;;;5045224;28;20285;-68
2022/12/19 07:43:27;;;;;;;17.23;10.70;;;-1.00;99.90;;;;;;5050822;28;20946;-68
2022/12/19 07:45:54;;;;;;;19.17;11.30;;;-0.70;99.90;;;;;;5053735;28;20495;-67
2022/12/19 07:48:20;;;;;;;17.50;7.90;;;-1.00;99.90;;;;;;5054116;28;20625;-66
2022/12/19 07:50:46;;;;;;;17.03;10.33;;;-1.10;99.90;;;;;;5053861;28;20419;-66
2022/12/19 07:53:12;;;;;;;14.60;8.53;;;-1.20;99.90;;;;;;5054253;28;20169;-66
2022/12/19 07:55:37;;;;;;;11.00;8.20;;;-1.20;99.90;;;;;;5051889;28;20804;-66
2022/12/19 07:58:03;;;;;;;25.53;11.63;;;-1.30;99.90;;;;;;5054009;28;20174;-66
2022/12/19 08:00:30;;;;;;;15.27;9.37;;;-1.30;99.90;;;;;;5052998;28;20194;-66
2022/12/19 08:02:58;;;;;;;14.03;9.30;;;-1.20;99.90;;;;;;5053765;28;20171;-67
2022/12/19 08:05:23;;;;;;;17.83;9.60;;;-1.30;99.90;;;;;;5053406;28;20453;-66
2022/12/19 08:07:49;;;;;;;24.60;10.83;;;-1.10;99.90;;;;;;5053646;28;20409;-67
2022/12/19 08:10:14;;;;;;;14.50;9.80;;;-0.90;99.90;;;;;;5048192;28;20557;-67
2022/12/19 08:12:40;;;;;;;25.13;10.90;;;-0.80;99.90;;;;;;5053411;28;20258;-67
2022/12/19 08:15:06;;;;;;;13.83;10.23;;;-0.80;99.90;;;;;;5053698;28;20645;-67
2022/12/19 08:17:32;;;;;;;13.60;8.33;;;-1.00;99.90;;;;;;5053618;28;20421;-66
2022/12/19 08:19:58;;;;;;;19.43;9.70;;;-1.00;99.90;;;;;;5053497;28;20729;-66
2022/12/19 08:22:23;;;;;;;12.57;9.27;;;-0.90;99.90;;;;;;5047277;28;20621;-67
2022/12/19 08:24:49;;;;;;;17.27;9.50;;;-0.90;99.90;;;;;;5053240;28;20163;-67
2022/12/19 08:27:16;;;;;;;12.70;8.50;;;-0.60;99.90;;;;;;5053454;28;20167;-66
2022/12/19 08:29:41;;;;;;;18.37;10.07;;;-0.70;99.90;;;;;;5052952;28;20460;-67
2022/12/19 08:32:07;;;;;;;17.10;9.77;;;-0.80;99.90;;;;;;5053432;28;20398;-67
2022/12/19 08:34:34;;;;;;;14.00;7.90;;;-0.60;99.90;;;;;;5052099;28;20208;-67
2022/12/19 08:36:59;;;;;;;16.17;9.33;;;-0.50;99.90;;;;;;5053080;28;20212;-67
2022/12/19 08:39:25;;;;;;;17.20;9.90;;;-0.60;99.90;;;;;;5052845;28;20471;-67
2022/12/19 08:41:51;;;;;;;19.40;9.53;;;-0.60;99.90;;;;;;5053502;28;20173;-67
2022/12/19 08:44:16;;;;;;;19.13;9.40;;;-0.50;99.90;;;;;;5053268;28;20217;-67
2022/12/19 08:46:42;;;;;;;15.33;9.53;;;-0.60;99.90;;;;;;5052750;28;20202;-67
2022/12/19 08:49:07;;;;;;;18.23;9.10;;;-0.60;99.90;;;;;;5053298;28;20657;-66
2022/12/19 08:51:33;;;;;;;15.83;11.80;;;-0.50;99.90;;;;;;5052723;28;20269;-67
2022/12/19 08:53:59;;;;;;;12.57;7.87;;;-0.40;99.90;;;;;;5052887;28;20187;-66
2022/12/19 08:56:24;;;;;;;15.80;9.30;;;-0.30;99.90;;;;;;5051478;28;20179;-66
2022/12/19 08:58:50;;;;;;;19.30;9.93;;;-0.40;99.90;;;;;;5052651;28;20557;-68
2022/12/19 09:01:18;;;;;;;14.67;8.83;;;-0.50;99.90;;;;;;5031269;28;20188;-66
2022/12/19 09:03:45;;;;;;;17.67;10.10;;;-0.40;99.90;;;;;;5052362;28;20421;-66
2022/12/19 09:06:12;;;;;;;22.70;9.93;;;-0.20;99.90;;;;;;5052498;28;20449;-66
2022/12/19 09:08:39;;;;;;;21.90;10.77;;;-0.20;99.90;;;;;;5052394;28;20447;-67
2022/12/19 09:11:16;;;;;;;15.27;8.53;;;-0.20;99.90;;;;;;5052174;28;20855;-66
2022/12/19 09:13:43;;;;;;;12.90;8.53;;;-0.30;99.90;;;;;;5052251;28;20403;-67
2022/12/19 09:16:20;;;;;;;12.80;9.70;;;-0.30;99.90;;;;;;5052061;28;20409;-66
2022/12/19 09:18:49;;;;;;;22.00;10.00;;;-0.30;99.90;;;;;;5045199;28;20401;-67
2022/12/19 09:21:16;;;;;;;16.73;10.03;;;-0.20;99.90;;;;;;5051996;28;20431;-67
2022/12/19 09:23:42;;;;;;;19.00;10.70;;;-0.10;99.90;;;;;;5052184;28;20406;-67
2022/12/19 09:26:10;;;;;;;21.53;10.33;;;-0.10;99.90;;;;;;5051849;28;20453;-67
2022/12/19 09:28:38;;;;;;;16.50;10.63;;;0.00;99.90;;;;;;5051959;28;20410;-67
2022/12/19 09:31:09;;;;;;;13.80;8.70;;;0.00;99.90;;;;;;5051557;28;20456;-67
2022/12/19 09:33:36;;;;;;;23.03;10.47;;;0.00;99.90;;;;;;5051910;28;20776;-67
2022/12/19 09:36:03;;;;;;;18.83;9.80;;;0.10;99.90;;;;;;5051560;28;20497;-67
2022/12/19 09:38:32;;;;;;;16.43;10.53;;;0.10;99.90;;;;;;5051867;28;20412;-67
2022/12/19 09:40:57;;;;;;;13.30;8.90;;;0.20;99.90;;;;;;5051828;28;20851;-67
2022/12/19 09:43:55;;;;;;;20.70;12.00;;;0.20;99.90;;;;;;5046516;28;20407;-67
2022/12/19 09:46:29;;;;;;;25.70;11.57;;;0.20;99.90;;;;;;5044149;28;20289;-67
2022/12/19 09:48:56;;;;;;;16.80;8.90;;;0.30;99.90;;;;;;5051675;28;20405;-68
2022/12/19 09:51:25;;;;;;;16.20;9.73;;;0.40;99.90;;;;;;5051599;28;20466;-69
2022/12/19 09:54:29;;;;;;;16.63;10.33;;;0.40;99.90;;;;;;5052193;28;20406;-67
2022/12/19 09:57:01;;;;;;;19.20;11.17;;;0.40;99.90;;;;;;5032785;28;20425;-67
2022/12/19 09:59:35;;;;;;;20.43;10.57;;;0.50;99.90;;;;;;5051637;28;20417;-67
2022/12/19 10:02:24;;;;;;;18.47;10.13;;;0.50;99.90;;;;;;5051328;28;20405;-67
2022/12/19 10:05:15;;;;;;;13.53;10.47;;;0.50;99.90;;;;;;5043806;28;20397;-68
2022/12/19 10:07:43;;;;;;;21.03;11.33;;;0.60;99.90;;;;;;5029703;28;20422;-67
2022/12/19 10:10:19;;;;;;;17.90;9.37;;;0.70;99.90;;;;;;5051640;28;20961;-69
2022/12/19 10:13:10;;;;;;;17.47;9.87;;;0.70;99.90;;;;;;5043587;28;20492;-67
2022/12/19 10:15:52;;;;;;;17.17;9.50;;;0.80;99.90;;;;;;5051522;28;20441;-68
2022/12/19 10:18:25;;;;;;;18.23;10.30;;;0.90;99.90;;;;;;5051716;28;20409;-68
2022/12/19 10:21:08;;;;;;;23.27;10.33;;;1.00;99.90;;;;;;5026123;28;20440;-67
2022/12/19 10:23:39;;;;;;;14.37;9.27;;;1.10;99.90;;;;;;5051297;28;20780;-68
2022/12/19 10:26:09;;;;;;;20.30;10.07;;;1.10;99.90;;;;;;5051357;28;20465;-67
2022/12/19 10:28:44;;;;;;;14.77;8.90;;;1.10;99.90;;;;;;5051713;28;20459;-68
2022/12/19 10:31:19;;;;;;;19.03;11.13;;;1.30;99.90;;;;;;5051299;28;20486;-68
2022/12/19 10:34:06;;;;;;;18.93;10.80;;;1.20;99.90;;;;;;5051263;28;20409;-69
2022/12/19 10:36:40;;;;;;;29.07;11.10;;;1.20;99.90;;;;;;5050975;28;20414;-68
2022/12/19 10:39:15;;;;;;;13.17;8.77;;;1.30;99.90;;;;;;5051132;28;20492;-67
2022/12/19 10:41:43;;;;;;;15.50;9.30;;;1.40;99.90;;;;;;5050944;28;20451;-67
2022/12/19 10:44:12;;;;;;;20.77;11.70;;;1.60;99.90;;;;;;5045853;28;20424;-67
2022/12/19 10:46:39;;;;;;;24.73;10.40;;;1.70;99.90;;;;;;5049395;28;20564;-68
2022/12/19 10:49:13;;;;;;;16.57;10.30;;;1.80;99.90;;;;;;5051283;28;20504;-68
2022/12/19 10:51:39;;;;;;;21.27;10.07;;;2.00;99.90;;;;;;5050887;28;20433;-68
2022/12/19 10:54:05;;;;;;;20.23;11.30;;;2.00;99.90;;;;;;5051125;28;20406;-68
2022/12/19 10:56:31;;;;;;;20.17;10.90;;;2.00;99.90;;;;;;5050877;28;20423;-69
2022/12/19 10:58:58;;;;;;;19.57;10.23;;;2.10;99.90;;;;;;5050875;28;20559;-68
2022/12/19 11:01:32;;;;;;;28.23;12.00;;;2.10;99.90;;;;;;5050701;28;20476;-68
2022/12/19 11:04:18;;;;;;;20.17;12.00;;;2.30;99.90;;;;;;5048290;28;20417;-69
2022/12/19 11:06:48;;;;;;;21.87;12.07;;;2.20;99.90;;;;;;5049852;28;20460;-69
2022/12/19 11:09:17;;;;;;;18.97;10.70;;;2.20;99.90;;;;;;5051373;28;20896;-69
2022/12/19 11:11:45;;;;;;;15.57;9.93;;;2.30;99.90;;;;;;5051027;28;20432;-68
2022/12/19 11:14:28;;;;;;;18.93;11.20;;;2.20;99.90;;;;;;5050920;28;20413;-71
2022/12/19 11:16:54;;;;;;;18.30;13.17;;;2.20;99.90;;;;;;5043608;28;20406;-68
2022/12/19 11:19:40;;;;;;;21.83;11.10;;;2.10;99.90;;;;;;5030024;28;20415;-69
2022/12/19 11:22:14;;;;;;;22.47;11.77;;;2.00;99.90;;;;;;5054681;28;20467;-70
2022/12/19 11:24:47;;;;;;;17.67;9.90;;;2.00;99.90;;;;;;5054534;28;20495;-69
2022/12/19 11:27:30;;;;;;;19.93;11.50;;;1.90;99.90;;;;;;5055179;28;20942;-70
2022/12/19 11:29:58;;;;;;;21.13;12.77;;;1.80;99.90;;;;;;5031671;28;20456;-68
2022/12/19 11:32:35;;;;;;;18.33;9.67;;;1.90;99.90;;;;;;5055053;28;20412;-69
2022/12/19 11:35:16;;;;;;;21.53;11.70;;;1.90;99.90;;;;;;5048491;28;20409;-69
2022/12/19 11:37:58;;;;;;;20.63;10.23;;;2.00;99.90;;;;;;5054529;28;20554;-69
2022/12/19 11:40:56;;;;;;;18.60;10.23;;;1.90;99.90;;;;;;5054303;28;20525;-69
2022/12/19 11:43:33;;;;;;;13.37;9.33;;;1.90;99.90;;;;;;5053791;28;20892;-68
2022/12/19 11:46:07;;;;;;;18.00;9.67;;;1.80;99.90;;;;;;5054316;28;20459;-67
2022/12/19 11:48:32;;;;;;;24.80;10.60;;;1.90;99.90;;;;;;5052516;28;20393;-70
2022/12/19 11:51:06;;;;;;;21.83;11.10;;;1.80;99.90;;;;;;5054119;28;20789;-68
2022/12/19 11:53:51;;;;;;;17.60;11.90;;;1.80;99.90;;;;;;5053932;28;20649;-67
2022/12/19 11:56:22;;;;;;;25.43;10.93;;;1.80;99.90;;;;;;5054515;28;20758;-68
2022/12/19 11:58:52;;;;;;;26.27;11.93;;;1.90;99.90;;;;;;5050674;28;20424;-67
2022/12/19 12:01:29;;;;;;;20.07;9.93;;;1.80;99.90;;;;;;5054065;28;20433;-69
2022/12/19 12:04:16;;;;;;;20.57;9.60;;;1.80;99.90;;;;;;5050975;28;20413;-68
2022/12/19 12:06:50;;;;;;;16.40;10.00;;;1.90;99.90;;;;;;5053708;28;20594;-68
2022/12/19 12:09:42;;;;;;;17.23;10.50;;;1.80;99.90;;;;;;5049460;28;20410;-68
2022/12/19 12:12:35;;;;;;;20.37;11.27;;;1.80;99.90;;;;;;5048861;28;20410;-68
2022/12/19 12:15:28;;;;;;;18.73;10.53;;;1.80;99.90;;;;;;5047726;28;20409;-67
2022/12/19 12:18:31;;;;;;;18.17;10.70;;;1.70;99.90;;;;;;5053751;28;20417;-67
2022/12/19 12:21:21;;;;;;;14.33;9.23;;;1.70;99.90;;;;;;5054071;28;20474;-67
2022/12/19 12:24:05;;;;;;;16.10;9.83;;;1.70;99.90;;;;;;5045935;28;20912;-68
2022/12/19 12:26:30;;;;;;;23.37;10.30;;;1.70;99.90;;;;;;5053402;28;20444;-69
2022/12/19 12:29:05;;;;;;;18.90;11.50;;;1.80;99.90;;;;;;5053682;28;20417;-67
2022/12/19 12:31:37;;;;;;;17.00;10.57;;;1.80;99.90;;;;;;5053482;28;20680;-68
2022/12/19 12:34:21;;;;;;;17.43;10.27;;;1.80;99.90;;;;;;5070972;22;20551;-69
2022/12/19 12:37:07;;;;;;;17.27;10.47;;;1.70;99.90;;;;;;5025761;28;20413;-69
2022/12/19 12:39:52;;;;;;;21.13;10.33;;;1.70;99.90;;;;;;5014104;28;20919;-69
2022/12/19 12:42:32;;;;;;;18.80;11.00;;;1.70;99.90;;;;;;5029144;28;20458;-69
2022/12/19 12:44:59;;;;;;;20.57;11.10;;;1.70;99.90;;;;;;5021968;28;20407;-69
2022/12/19 12:47:26;;;;;;;19.60;9.67;;;1.80;99.90;;;;;;5021117;28;20494;-68
2022/12/19 12:49:57;;;;;;;21.10;10.27;;;1.80;99.90;;;;;;5014060;28;20411;-68
2022/12/19 12:52:40;;;;;;;18.03;12.80;;;1.80;99.90;;;;;;5018709;28;20917;-68
2022/12/19 12:55:23;;;;;;;22.33;11.43;;;1.80;99.90;;;;;;5019223;28;20415;-69
2022/12/19 12:57:49;;;;;;;14.10;9.97;;;1.80;99.90;;;;;;5005647;28;20439;-68
2022/12/19 13:00:29;;;;;;;16.90;10.10;;;1.90;99.90;;;;;;5018437;28;20438;-69
2022/12/19 13:03:13;;;;;;;14.70;10.10;;;1.90;99.90;;;;;;5014889;28;20199;-67